createdAt,value
2023-02-17T00:01:10.992Z,102241.56
2023-02-17T00:03:40.612Z,102245.81
2023-02-17T00:06:09.380Z,102231.91
2023-02-17T00:08:37.487Z,102242.13
2023-02-17T00:11:05.927Z,102241.66
2023-02-17T00:13:34.319Z,102249.50
2023-02-17T00:16:08.297Z,102252.38
2023-02-17T00:18:37.127Z,102259.25
2023-02-17T00:21:18.302Z,102267.03
2023-02-17T00:23:47.528Z,102266.84
2023-02-17T00:26:16.496Z,102263.59
2023-02-17T00:28:45.028Z,102265.34
2023-02-17T00:31:19.021Z,102264.66
2023-02-17T00:33:46.965Z,102269.66
2023-02-17T00:36:18.676Z,102271.06
2023-02-17T00:38:49.016Z,102266.94
2023-02-17T00:41:17.156Z,102255.03
2023-02-17T00:43:45.140Z,102264.50
2023-02-17T00:46:13.167Z,102263.59
2023-02-17T00:48:41.261Z,102269.81
2023-02-17T00:51:09.787Z,102265.78
2023-02-17T00:53:39.141Z,102268.47
2023-02-17T00:56:07.988Z,102266.25
2023-02-17T00:58:36.313Z,102267.88
2023-02-17T01:01:04.779Z,102268.22
2023-02-17T01:03:32.805Z,102259.84
2023-02-17T01:06:01.234Z,102264.50
2023-02-17T01:08:29.106Z,102261.00
2023-02-17T01:10:58.346Z,102253.69
2023-02-17T01:13:26.205Z,102255.75
2023-02-17T01:15:54.949Z,102252.72
2023-02-17T01:18:25.058Z,102252.28
2023-02-17T01:20:53.032Z,102253.13
2023-02-17T01:23:21.068Z,102249.50
2023-02-17T01:25:50.725Z,102247.00
2023-02-17T01:28:22.234Z,102247.63
2023-02-17T01:30:50.374Z,102252.22
2023-02-17T01:33:18.368Z,102266.00
2023-02-17T01:35:46.135Z,102260.03
2023-02-17T01:38:14.069Z,102252.75
2023-02-17T01:40:47.577Z,102258.47
2023-02-17T01:43:17.337Z,102258.69
2023-02-17T01:45:53.383Z,102256.16
2023-02-17T01:48:25.513Z,102258.97
2023-02-17T01:50:56.431Z,102254.63
2023-02-17T01:53:30.981Z,102257.84
2023-02-17T01:55:59.200Z,102247.50
2023-02-17T01:58:29.096Z,102244.41
2023-02-17T02:01:01.586Z,102251.84
2023-02-17T02:03:33.472Z,102244.47
2023-02-17T02:06:02.961Z,102245.41
2023-02-17T02:08:38.927Z,102255.78
2023-02-17T02:11:06.878Z,102253.56
2023-02-17T02:13:34.603Z,102247.81
2023-02-17T02:16:15.363Z,102252.19
2023-02-17T02:18:55.116Z,102252.50
2023-02-17T02:21:48.858Z,102252.38
2023-02-17T02:24:24.709Z,102247.00
2023-02-17T02:27:24.200Z,102252.31
2023-02-17T02:30:31.167Z,102259.06
2023-02-17T02:33:13.430Z,102258.97
2023-02-17T02:35:49.028Z,102248.44
2023-02-17T02:38:23.287Z,102253.91
2023-02-17T02:40:56.206Z,102250.84
2023-02-17T02:43:25.130Z,102247.88
2023-02-17T02:45:53.019Z,102251.47
2023-02-17T02:48:22.126Z,102247.25
2023-02-17T02:51:00.865Z,102254.84
2023-02-17T02:53:46.044Z,102242.38
2023-02-17T02:56:23.734Z,102241.66
2023-02-17T02:59:00.297Z,102236.28
2023-02-17T03:01:35.470Z,102238.16
2023-02-17T03:04:11.851Z,102237.47
2023-02-17T03:06:44.940Z,102233.63
2023-02-17T03:09:16.245Z,102232.53
2023-02-17T03:11:44.035Z,102231.63
2023-02-17T03:14:14.094Z,102222.34
2023-02-17T03:16:43.442Z,102224.63
2023-02-17T03:19:13.743Z,102225.16
2023-02-17T03:21:44.885Z,102219.50
2023-02-17T03:24:12.765Z,102228.22
2023-02-17T03:26:40.540Z,102230.06
2023-02-17T03:29:08.307Z,102227.34
2023-02-17T03:31:36.789Z,102218.56
2023-02-17T03:34:05.014Z,102221.19
2023-02-17T03:36:34.366Z,102223.81
2023-02-17T03:39:02.209Z,102229.34
2023-02-17T03:41:29.957Z,102236.41
2023-02-17T03:43:57.726Z,102237.00
2023-02-17T03:46:25.476Z,102232.56
2023-02-17T03:48:53.260Z,102238.03
2023-02-17T03:51:23.666Z,102239.78
2023-02-17T03:53:53.565Z,102235.00
2023-02-17T03:56:21.782Z,102238.16
2023-02-17T03:58:50.340Z,102240.88
2023-02-17T04:01:18.179Z,102245.09
2023-02-17T04:03:46.872Z,102238.81
2023-02-17T04:06:14.907Z,102240.25
2023-02-17T04:08:43.087Z,102251.09
2023-02-17T04:11:12.394Z,102248.13
2023-02-17T04:13:40.985Z,102245.44
2023-02-17T04:16:10.786Z,102252.69
2023-02-17T04:18:39.248Z,102257.31
2023-02-17T04:21:08.048Z,102263.16
2023-02-17T04:23:36.702Z,102260.22
2023-02-17T04:26:05.206Z,102267.41
2023-02-17T04:28:34.794Z,102271.69
2023-02-17T04:31:02.647Z,102278.06
2023-02-17T04:33:30.919Z,102279.91
2023-02-17T04:36:00.375Z,102276.47
2023-02-17T04:38:28.544Z,102287.53
2023-02-17T04:40:57.011Z,102288.19
2023-02-17T04:43:25.120Z,102289.53
2023-02-17T04:45:55.071Z,102289.31
2023-02-17T04:48:23.177Z,102300.81
2023-02-17T04:50:51.348Z,102303.25
2023-02-17T04:53:19.083Z,102301.47
2023-02-17T04:55:49.870Z,102306.84
2023-02-17T04:58:17.642Z,102302.91
2023-02-17T05:00:47.223Z,102308.16
2023-02-17T05:03:16.526Z,102315.69
2023-02-17T05:05:44.228Z,102310.03
2023-02-17T05:08:11.962Z,102308.06
2023-02-17T05:10:39.799Z,102312.91
2023-02-17T05:13:07.615Z,102316.03
2023-02-17T05:15:35.864Z,102319.22
2023-02-17T05:18:03.693Z,102310.97
2023-02-17T05:20:32.843Z,102314.75
2023-02-17T05:23:00.641Z,102313.63
2023-02-17T05:25:28.660Z,102313.34
2023-02-17T05:27:56.421Z,102313.13
2023-02-17T05:30:24.529Z,102317.19
2023-02-17T05:32:52.424Z,102317.09
2023-02-17T05:35:20.302Z,102314.63
2023-02-17T05:37:49.454Z,102323.94
2023-02-17T05:40:17.508Z,102313.47
2023-02-17T05:42:46.061Z,102313.63
2023-02-17T05:45:13.835Z,102307.88
2023-02-17T05:47:41.569Z,102317.06
2023-02-17T05:50:10.011Z,102312.91
2023-02-17T05:52:37.829Z,102316.09
2023-02-17T05:55:07.786Z,102311.25
2023-02-17T05:57:35.557Z,102303.09
2023-02-17T06:00:04.244Z,102306.03
2023-02-17T06:02:31.967Z,102315.09
2023-02-17T06:04:59.874Z,102309.28
2023-02-17T06:07:27.684Z,102307.41
2023-02-17T06:09:55.459Z,102317.09
2023-02-17T06:12:24.594Z,102322.34
2023-02-17T06:14:52.418Z,102323.09
2023-02-17T06:17:20.160Z,102322.41
2023-02-17T06:19:47.973Z,102319.03
2023-02-17T06:22:17.776Z,102321.88
2023-02-17T06:24:46.444Z,102332.50
2023-02-17T06:27:14.203Z,102327.13
2023-02-17T06:29:43.544Z,102331.69
2023-02-17T06:32:11.309Z,102326.28
2023-02-17T06:34:39.271Z,102333.28
2023-02-17T06:37:07.067Z,102318.31
2023-02-17T06:39:34.833Z,102319.38
2023-02-17T06:42:02.547Z,102319.03
2023-02-17T06:44:31.166Z,102332.72
2023-02-17T06:47:00.312Z,102335.00
2023-02-17T06:49:28.130Z,102338.34
2023-02-17T06:51:55.866Z,102339.19
2023-02-17T06:54:23.566Z,102341.59
2023-02-17T06:56:51.376Z,102350.56
2023-02-17T06:59:19.136Z,102356.69
2023-02-17T07:01:49.328Z,102357.91
2023-02-17T07:04:18.845Z,102361.16
2023-02-17T07:06:46.590Z,102366.59
2023-02-17T07:09:14.412Z,102364.13
2023-02-17T07:11:44.463Z,102364.66
2023-02-17T07:14:12.361Z,102367.84
2023-02-17T07:16:40.497Z,102375.63
2023-02-17T07:19:08.297Z,102374.72
2023-02-17T07:21:37.514Z,102381.59
2023-02-17T07:24:05.522Z,102388.31
2023-02-17T07:26:35.955Z,102385.38
2023-02-17T07:29:03.904Z,102382.28
2023-02-17T07:31:31.983Z,102395.16
2023-02-17T07:34:00.009Z,102391.34
2023-02-17T07:36:27.813Z,102396.47
2023-02-17T07:38:57.227Z,102393.31
2023-02-17T07:41:28.601Z,102388.25
2023-02-17T07:43:58.353Z,102384.72
2023-02-17T07:46:27.209Z,102394.31
2023-02-17T07:48:55.071Z,102396.38
2023-02-17T07:51:23.895Z,102391.38
2023-02-17T07:53:53.307Z,102390.25
2023-02-17T07:56:23.568Z,102401.47
2023-02-17T07:58:51.703Z,102395.22
2023-02-17T08:01:22.192Z,102400.84
2023-02-17T08:03:50.395Z,102401.91
2023-02-17T08:06:20.538Z,102403.31
2023-02-17T08:09:06.624Z,102402.69
2023-02-17T08:11:54.287Z,102406.47
2023-02-17T08:14:22.619Z,102412.69
2023-02-17T08:16:50.557Z,102415.03
2023-02-17T08:19:18.737Z,102420.22
2023-02-17T08:21:47.072Z,102413.75
2023-02-17T08:24:16.196Z,102422.84
2023-02-17T08:26:45.557Z,102426.91
2023-02-17T08:29:13.758Z,102420.22
2023-02-17T08:31:42.816Z,102431.13
2023-02-17T08:34:13.332Z,102423.38
2023-02-17T08:36:41.390Z,102430.81
2023-02-17T08:39:14.097Z,102436.16
2023-02-17T08:41:42.430Z,102437.28
2023-02-17T08:44:13.270Z,102431.44
2023-02-17T08:46:41.816Z,102438.38
2023-02-17T08:49:09.722Z,102435.16
2023-02-17T08:51:37.812Z,102439.16
2023-02-17T08:54:07.111Z,102453.19
2023-02-17T08:56:35.724Z,102446.66
2023-02-17T08:59:03.774Z,102457.22
2023-02-17T09:01:33.094Z,102447.09
2023-02-17T09:04:02.155Z,102450.34
2023-02-17T09:06:34.700Z,102440.31
2023-02-17T09:09:03.255Z,102441.03
2023-02-17T09:11:31.146Z,102442.06
2023-02-17T09:13:59.220Z,102444.97
2023-02-17T09:16:27.067Z,102445.56
2023-02-17T09:18:56.438Z,102444.03
2023-02-17T09:21:24.221Z,102453.91
2023-02-17T09:23:53.728Z,102450.38
2023-02-17T09:26:22.031Z,102450.88
2023-02-17T09:28:50.364Z,102454.41
2023-02-17T09:31:20.065Z,102456.19
2023-02-17T09:33:49.350Z,102449.09
2023-02-17T09:36:21.172Z,102450.28
2023-02-17T09:38:49.809Z,102457.28
2023-02-17T09:41:20.869Z,102455.00
2023-02-17T09:43:49.076Z,102462.91
2023-02-17T09:46:22.302Z,102461.38
2023-02-17T09:48:52.016Z,102461.81
2023-02-17T09:51:27.897Z,102460.59
2023-02-17T09:54:05.542Z,102468.66
2023-02-17T09:56:38.009Z,102467.50
2023-02-17T09:59:12.480Z,102483.00
2023-02-17T10:01:42.110Z,102475.91
2023-02-17T10:04:18.295Z,102480.63
2023-02-17T10:06:50.683Z,102485.38
2023-02-17T10:09:24.435Z,102480.72
2023-02-17T10:11:56.100Z,102483.25
2023-02-17T10:14:30.227Z,102483.72
2023-02-17T10:17:03.649Z,102502.88
2023-02-17T10:19:35.402Z,102495.28
2023-02-17T10:22:09.892Z,102496.09
2023-02-17T10:24:37.852Z,102501.81
2023-02-17T10:27:19.589Z,102497.28
2023-02-17T10:29:57.004Z,102497.72
2023-02-17T10:32:26.577Z,102501.50
2023-02-17T10:35:14.105Z,102490.94
2023-02-17T10:37:48.264Z,102502.03
2023-02-17T10:40:20.481Z,102499.56
2023-02-17T10:42:50.777Z,102499.97
2023-02-17T10:45:27.354Z,102497.69
2023-02-17T10:48:00.182Z,102495.38
2023-02-17T10:50:28.037Z,102500.34
2023-02-17T10:52:57.794Z,102492.72
2023-02-17T10:55:34.919Z,102503.25
2023-02-17T10:58:08.083Z,102497.56
2023-02-17T11:00:35.976Z,102502.53
2023-02-17T11:03:03.835Z,102503.56
2023-02-17T11:05:33.835Z,102506.13
2023-02-17T11:08:07.105Z,102514.38
2023-02-17T11:10:35.815Z,102501.03
2023-02-17T11:13:05.138Z,102508.63
2023-02-17T11:15:36.677Z,102507.34
2023-02-17T11:18:13.468Z,102504.97
2023-02-17T11:20:41.354Z,102507.25
2023-02-17T11:23:24.033Z,102501.84
2023-02-17T11:26:04.795Z,102494.13
2023-02-17T11:28:32.795Z,102501.53
2023-02-17T11:31:04.847Z,102494.56
2023-02-17T11:33:36.228Z,102504.00
2023-02-17T11:36:05.997Z,102497.53
2023-02-17T11:38:45.746Z,102497.84
2023-02-17T11:41:13.569Z,102496.34
2023-02-17T11:43:52.924Z,102502.75
2023-02-17T11:46:28.820Z,102507.25
2023-02-17T11:49:13.023Z,102499.22
2023-02-17T11:51:53.205Z,102496.59
2023-02-17T11:54:29.255Z,102494.16
2023-02-17T11:57:19.463Z,102494.66
2023-02-17T12:00:01.524Z,102501.34
2023-02-17T12:02:43.204Z,102492.69
2023-02-17T12:05:22.957Z,102496.53
2023-02-17T12:08:05.729Z,102492.34
2023-02-17T12:10:46.746Z,102485.06
2023-02-17T12:13:28.048Z,102478.94
2023-02-17T12:16:05.777Z,102476.47
2023-02-17T12:18:50.152Z,102474.72
2023-02-17T12:21:30.337Z,102470.28
2023-02-17T12:24:17.532Z,102474.13
2023-02-17T12:26:49.420Z,102471.53
2023-02-17T12:29:30.335Z,102463.44
2023-02-17T12:32:12.039Z,102460.75
2023-02-17T12:34:42.952Z,102456.63
2023-02-17T12:37:20.134Z,102448.50
2023-02-17T12:39:54.072Z,102441.81
2023-02-17T12:42:27.243Z,102441.59
2023-02-17T12:44:57.623Z,102437.25
2023-02-17T12:47:32.369Z,102423.97
2023-02-17T12:50:04.972Z,102420.28
2023-02-17T12:52:40.189Z,102415.56
2023-02-17T12:55:19.882Z,102410.78
2023-02-17T12:57:58.209Z,102412.47
2023-02-17T13:00:31.195Z,102414.88
2023-02-17T13:02:59.907Z,102419.47
2023-02-17T13:05:34.478Z,102422.81
2023-02-17T13:08:08.436Z,102416.72
2023-02-17T13:10:37.822Z,102414.94
2023-02-17T13:13:11.482Z,102429.13
2023-02-17T13:15:42.801Z,102419.31
2023-02-17T13:18:15.192Z,102419.94
2023-02-17T13:20:53.250Z,102424.88
2023-02-17T13:23:30.795Z,102412.38
2023-02-17T13:26:27.638Z,102418.41
2023-02-17T13:29:18.537Z,102412.53
2023-02-17T13:31:52.739Z,102410.56
2023-02-17T13:34:34.351Z,102402.34
2023-02-17T13:37:15.536Z,102400.19
2023-02-17T13:39:43.740Z,102407.09
2023-02-17T13:42:35.312Z,102399.31
2023-02-17T13:45:15.568Z,102399.84
2023-02-17T13:47:44.518Z,102401.03
2023-02-17T13:50:29.373Z,102398.50
2023-02-17T13:52:58.253Z,102398.00
2023-02-17T13:55:26.604Z,102403.91
2023-02-17T13:57:56.191Z,102400.44
2023-02-17T14:00:28.845Z,102402.66
2023-02-17T14:02:59.282Z,102395.09
2023-02-17T14:05:29.445Z,102398.19
2023-02-17T14:08:04.321Z,102401.72
2023-02-17T14:10:32.573Z,102399.75
2023-02-17T14:13:00.463Z,102400.84
2023-02-17T14:15:30.542Z,102395.94
2023-02-17T14:17:58.385Z,102401.03
2023-02-17T14:20:29.395Z,102393.53
2023-02-17T14:23:04.414Z,102392.78
2023-02-17T14:25:35.636Z,102393.09
2023-02-17T14:28:03.531Z,102392.00
2023-02-17T14:30:36.783Z,102391.69
2023-02-17T14:33:08.945Z,102403.47
2023-02-17T14:35:39.380Z,102395.34
2023-02-17T14:38:19.915Z,102402.09
2023-02-17T14:40:47.714Z,102401.84
2023-02-17T14:43:15.481Z,102404.28
2023-02-17T14:45:44.526Z,102403.13
2023-02-17T14:48:12.312Z,102402.72
2023-02-17T14:50:42.467Z,102399.25
2023-02-17T14:53:14.611Z,102408.91
2023-02-17T14:55:47.324Z,102409.66
2023-02-17T14:58:20.696Z,102411.44
2023-02-17T15:00:50.203Z,102401.69
2023-02-17T15:03:18.416Z,102395.78
2023-02-17T15:05:46.598Z,102399.00
2023-02-17T15:08:17.184Z,102399.34
2023-02-17T15:10:45.477Z,102395.19
2023-02-17T15:13:16.044Z,102407.84
2023-02-17T15:15:47.416Z,102396.00
2023-02-17T15:18:19.204Z,102401.53
2023-02-17T15:20:49.599Z,102408.34
2023-02-17T15:23:19.365Z,102403.50
2023-02-17T15:25:48.142Z,102403.03
2023-02-17T15:28:17.970Z,102397.25
2023-02-17T15:30:49.048Z,102391.81
2023-02-17T15:33:18.699Z,102398.59
2023-02-17T15:35:47.224Z,102389.56
2023-02-17T15:38:15.308Z,102392.47
2023-02-17T15:40:43.193Z,102395.16
2023-02-17T15:43:13.450Z,102403.75
2023-02-17T15:45:41.264Z,102397.56
2023-02-17T15:48:13.283Z,102393.25
2023-02-17T15:50:43.036Z,102400.88
2023-02-17T15:53:10.832Z,102399.22
2023-02-17T15:55:40.341Z,102406.47
2023-02-17T15:58:14.212Z,102397.72
2023-02-17T16:00:42.051Z,102402.56
2023-02-17T16:03:12.074Z,102408.69
2023-02-17T16:05:40.208Z,102399.31
2023-02-17T16:08:09.853Z,102409.84
2023-02-17T16:10:39.515Z,102405.50
2023-02-17T16:13:07.938Z,102407.31
2023-02-17T16:15:37.553Z,102403.03
2023-02-17T16:18:05.413Z,102401.06
2023-02-17T16:20:35.038Z,102394.22
2023-02-17T16:23:03.928Z,102399.63
2023-02-17T16:25:33.150Z,102397.31
2023-02-17T16:28:01.113Z,102402.66
2023-02-17T16:30:33.972Z,102402.09
2023-02-17T16:33:01.933Z,102407.88
2023-02-17T16:35:32.132Z,102410.59
2023-02-17T16:38:02.840Z,102410.09
2023-02-17T16:40:32.394Z,102407.25
2023-02-17T16:43:01.527Z,102411.16
2023-02-17T16:45:31.446Z,102408.69
2023-02-17T16:48:01.731Z,102417.88
2023-02-17T16:50:31.139Z,102415.84
2023-02-17T16:53:00.600Z,102411.44
2023-02-17T16:55:30.712Z,102415.31
2023-02-17T16:57:59.318Z,102414.69
2023-02-17T17:00:31.200Z,102421.94
2023-02-17T17:02:59.631Z,102416.03
2023-02-17T17:05:29.567Z,102414.78
2023-02-17T17:07:57.956Z,102419.22
2023-02-17T17:10:28.076Z,102413.09
2023-02-17T17:12:56.266Z,102410.06
2023-02-17T17:15:24.105Z,102417.34
2023-02-17T17:17:57.217Z,102413.25
2023-02-17T17:20:31.000Z,102417.47
2023-02-17T17:23:00.182Z,102420.41
2023-02-17T17:25:29.045Z,102416.31
2023-02-17T17:27:57.976Z,102422.38
2023-02-17T17:30:28.283Z,102428.88
2023-02-17T17:32:57.378Z,102437.09
2023-02-17T17:35:25.594Z,102442.28
2023-02-17T17:37:53.355Z,102445.00
2023-02-17T17:40:23.379Z,102448.13
2023-02-17T17:42:51.339Z,102450.00
2023-02-17T17:45:19.651Z,102457.22
2023-02-17T17:47:47.415Z,102454.06
2023-02-17T17:50:20.421Z,102466.16
2023-02-17T17:52:48.305Z,102462.59
2023-02-17T17:55:16.442Z,102473.19
2023-02-17T17:57:45.731Z,102468.22
2023-02-17T18:00:16.834Z,102478.50
2023-02-17T18:02:44.713Z,102476.84
2023-02-17T18:05:13.031Z,102469.91
2023-02-17T18:07:44.913Z,102477.56
2023-02-17T18:10:14.727Z,102473.00
2023-02-17T18:12:43.924Z,102469.44
2023-02-17T18:15:12.031Z,102479.38
2023-02-17T18:17:43.004Z,102474.81
2023-02-17T18:20:13.345Z,102483.28
2023-02-17T18:22:43.061Z,102488.00
2023-02-17T18:25:11.955Z,102492.91
2023-02-17T18:27:41.640Z,102499.81
2023-02-17T18:30:11.590Z,102502.97
2023-02-17T18:32:39.402Z,102504.50
2023-02-17T18:35:07.687Z,102508.59
2023-02-17T18:37:35.631Z,102512.47
2023-02-17T18:40:06.075Z,102507.09
2023-02-17T18:42:34.305Z,102509.56
2023-02-17T18:45:02.102Z,102504.75
2023-02-17T18:47:30.883Z,102508.09
2023-02-17T18:49:58.885Z,102504.50
2023-02-17T18:52:26.751Z,102513.81
2023-02-17T18:54:54.536Z,102510.16
2023-02-17T18:57:23.657Z,102503.97
2023-02-17T18:59:51.408Z,102516.31
2023-02-17T19:02:19.162Z,102513.03
2023-02-17T19:04:46.973Z,102513.03
2023-02-17T19:07:14.792Z,102516.44
2023-02-17T19:09:43.298Z,102518.91
2023-02-17T19:12:13.473Z,102523.31
2023-02-17T19:14:43.303Z,102521.19
2023-02-17T19:17:11.934Z,102526.03
2023-02-17T19:19:41.127Z,102529.31
2023-02-17T19:22:09.624Z,102527.88
2023-02-17T19:24:38.485Z,102530.16
2023-02-17T19:27:07.017Z,102534.34
2023-02-17T19:29:35.492Z,102531.09
2023-02-17T19:32:05.670Z,102533.91
2023-02-17T19:34:33.471Z,102535.13
2023-02-17T19:37:01.295Z,102534.34
2023-02-17T19:39:29.064Z,102543.84
2023-02-17T19:41:56.816Z,102536.75
2023-02-17T19:44:24.546Z,102533.69
2023-02-17T19:46:53.766Z,102536.34
2023-02-17T19:49:22.979Z,102541.09
2023-02-17T19:51:50.892Z,102537.91
2023-02-17T19:54:18.731Z,102534.59
2023-02-17T19:56:48.314Z,102541.13
2023-02-17T19:59:16.117Z,102539.13
2023-02-17T20:01:44.279Z,102544.53
2023-02-17T20:04:12.211Z,102527.97
2023-02-17T20:06:43.591Z,102537.44
2023-02-17T20:09:15.425Z,102533.47
2023-02-17T20:11:43.886Z,102525.78
2023-02-17T20:14:12.057Z,102524.03
2023-02-17T20:16:40.560Z,102523.50
2023-02-17T20:19:08.766Z,102531.06
2023-02-17T20:21:38.552Z,102529.72
2023-02-17T20:24:08.095Z,102538.84
2023-02-17T20:26:40.387Z,102538.31
2023-02-17T20:29:09.717Z,102536.84
2023-02-17T20:31:38.604Z,102539.47
2023-02-17T20:34:08.370Z,102532.03
2023-02-17T20:36:36.131Z,102541.81
2023-02-17T20:39:04.305Z,102545.81
2023-02-17T20:41:33.500Z,102547.72
2023-02-17T20:44:02.896Z,102548.53
2023-02-17T20:46:32.893Z,102546.06
2023-02-17T20:49:00.607Z,102551.50
2023-02-17T20:51:28.386Z,102548.56
2023-02-17T20:53:56.182Z,102550.59
2023-02-17T20:56:26.338Z,102562.78
2023-02-17T20:58:55.868Z,102553.44
2023-02-17T21:01:23.639Z,102557.66
2023-02-17T21:03:51.395Z,102566.00
2023-02-17T21:06:22.509Z,102576.53
2023-02-17T21:08:52.436Z,102566.75
2023-02-17T21:11:20.398Z,102565.84
2023-02-17T21:13:48.902Z,102573.56
2023-02-17T21:16:19.900Z,102569.44
2023-02-17T21:18:48.054Z,102567.66
2023-02-17T21:21:16.483Z,102562.09
2023-02-17T21:23:44.544Z,102561.91
2023-02-17T21:26:14.111Z,102559.38
2023-02-17T21:28:42.290Z,102571.38
2023-02-17T21:31:10.823Z,102564.25
2023-02-17T21:33:42.102Z,102578.44
2023-02-17T21:36:11.272Z,102576.16
2023-02-17T21:38:39.817Z,102576.34
2023-02-17T21:41:10.538Z,102579.66
2023-02-17T21:43:55.959Z,102571.75
2023-02-17T21:46:24.590Z,102577.81
2023-02-17T21:48:54.088Z,102574.56
2023-02-17T21:51:22.007Z,102578.41
2023-02-17T21:53:49.929Z,102578.53
2023-02-17T21:56:17.761Z,102578.44
2023-02-17T21:58:47.778Z,102581.72
2023-02-17T22:01:16.163Z,102578.41
2023-02-17T22:03:43.998Z,102585.66
2023-02-17T22:06:19.006Z,102579.53
2023-02-17T22:08:46.924Z,102580.91
2023-02-17T22:11:16.006Z,102579.97
2023-02-17T22:13:44.051Z,102579.16
2023-02-17T22:16:12.237Z,102574.97
2023-02-17T22:18:40.131Z,102580.94
2023-02-17T22:21:09.993Z,102582.09
2023-02-17T22:23:39.711Z,102579.00
2023-02-17T22:26:09.794Z,102573.88
2023-02-17T22:28:38.005Z,102579.19
2023-02-17T22:31:06.801Z,102575.41
2023-02-17T22:33:35.247Z,102570.38
2023-02-17T22:36:06.276Z,102576.25
2023-02-17T22:38:34.886Z,102573.69
2023-02-17T22:41:08.208Z,102570.81
2023-02-17T22:43:36.370Z,102577.25
2023-02-17T22:46:04.372Z,102564.88
2023-02-17T22:48:33.069Z,102570.09
2023-02-17T22:51:06.073Z,102567.97
2023-02-17T22:53:33.971Z,102563.75
2023-02-17T22:56:01.881Z,102560.56
2023-02-17T22:58:31.355Z,102563.81
2023-02-17T23:01:04.454Z,102563.72
2023-02-17T23:03:32.291Z,102564.81
2023-02-17T23:06:01.402Z,102568.13
2023-02-17T23:08:29.211Z,102562.44
2023-02-17T23:10:56.974Z,102567.44
2023-02-17T23:13:24.739Z,102563.13
2023-02-17T23:15:53.846Z,102566.75
2023-02-17T23:18:21.650Z,102564.16
2023-02-17T23:20:51.696Z,102568.66
2023-02-17T23:23:20.235Z,102561.25
2023-02-17T23:25:50.768Z,102571.06
2023-02-17T23:28:19.024Z,102568.22
2023-02-17T23:30:47.835Z,102567.31
2023-02-17T23:33:17.659Z,102565.97
2023-02-17T23:35:46.249Z,102561.84
2023-02-17T23:38:15.492Z,102569.34
2023-02-17T23:40:43.703Z,102570.66
2023-02-17T23:43:11.587Z,102561.66
2023-02-17T23:45:39.513Z,102568.84
2023-02-17T23:48:07.620Z,102571.56
2023-02-17T23:50:36.849Z,102566.09
2023-02-17T23:53:05.167Z,102563.13
2023-02-17T23:55:32.906Z,102569.31
2023-02-17T23:58:01.036Z,102560.03
